createdAt,value
2019-03-03T00:01:05.214Z,722.30
2019-03-03T00:06:10.173Z,829.43
2019-03-03T00:11:15.192Z,778.10
2019-03-03T00:16:21.516Z,830.73
2019-03-03T00:21:27.522Z,794.33
2019-03-03T00:26:32.635Z,787.00
2019-03-03T00:31:39.997Z,786.43
2019-03-03T00:37:22.444Z,734.30
2019-03-03T00:42:45.209Z,726.90
2019-03-03T00:48:16.713Z,751.80
2019-03-03T00:53:50.646Z,682.37
2019-03-03T00:59:05.221Z,793.20
2019-03-03T01:04:16.592Z,709.60
2019-03-03T01:09:43.676Z,743.47
2019-03-03T01:15:07.385Z,752.10
2019-03-03T01:20:31.353Z,775.33
2019-03-03T01:25:36.538Z,742.47
2019-03-03T01:30:41.660Z,725.70
2019-03-03T01:35:46.952Z,756.03
2019-03-03T01:40:52.005Z,719.03
2019-03-03T01:45:57.059Z,711.50
2019-03-03T01:51:02.112Z,913.57
2019-03-03T01:56:07.476Z,759.40
2019-03-03T02:01:12.672Z,725.10
2019-03-03T02:06:17.780Z,764.67
2019-03-03T02:11:22.752Z,780.23
2019-03-03T02:16:27.994Z,810.60
2019-03-03T02:21:33.049Z,769.27
2019-03-03T02:26:38.384Z,774.70
2019-03-03T02:31:43.440Z,807.17
2019-03-03T02:36:48.488Z,801.73
2019-03-03T02:41:53.571Z,806.03
2019-03-03T02:46:58.627Z,827.87
2019-03-03T02:52:03.595Z,964.93
2019-03-03T02:57:09.614Z,788.27
2019-03-03T03:02:51.959Z,705.47
2019-03-03T03:08:08.915Z,679.97
2019-03-03T03:13:32.886Z,709.23
2019-03-03T03:18:55.654Z,785.23
2019-03-03T03:24:19.648Z,779.17
2019-03-03T03:29:46.525Z,626.73
2019-03-03T03:35:02.525Z,661.37
2019-03-03T03:40:18.239Z,584.93
2019-03-03T03:45:44.174Z,823.70
2019-03-03T03:51:08.128Z,752.17
2019-03-03T03:56:31.147Z,712.97
2019-03-03T04:01:55.170Z,816.67
2019-03-03T04:07:13.405Z,821.77
2019-03-03T04:12:46.751Z,917.60
2019-03-03T04:18:08.393Z,1085.53
2019-03-03T04:23:25.612Z,753.03
2019-03-03T04:28:41.817Z,702.63
2019-03-03T04:33:52.099Z,546.97
2019-03-03T04:39:22.136Z,734.70
2019-03-03T04:44:44.699Z,765.80
2019-03-03T04:49:59.814Z,824.60
2019-03-03T04:55:17.541Z,882.13
2019-03-03T05:00:48.094Z,876.27
2019-03-03T05:06:08.439Z,816.50
2019-03-03T05:11:56.055Z,834.07
2019-03-03T05:17:08.713Z,875.43
2019-03-03T05:22:13.972Z,835.43
2019-03-03T05:27:18.997Z,821.30
2019-03-03T05:32:24.049Z,816.97
2019-03-03T05:37:29.045Z,845.27
2019-03-03T05:42:34.190Z,855.07
2019-03-03T05:47:39.238Z,597.77
2019-03-03T05:52:44.247Z,704.50
2019-03-03T05:57:49.548Z,604.50
2019-03-03T06:02:54.689Z,880.40
2019-03-03T06:07:59.688Z,823.63
2019-03-03T06:13:04.785Z,860.33
2019-03-03T06:18:09.867Z,922.23
2019-03-03T06:23:14.875Z,994.40
2019-03-03T06:28:20.954Z,948.20
2019-03-03T06:33:28.528Z,1192.00
2019-03-03T06:38:32.641Z,1057.50
2019-03-03T06:43:37.905Z,947.17
2019-03-03T06:48:42.926Z,994.63
2019-03-03T06:53:47.920Z,958.57
2019-03-03T06:58:53.168Z,984.13
2019-03-03T07:03:58.191Z,938.77
2019-03-03T07:09:04.061Z,954.63
2019-03-03T07:14:09.069Z,948.40
2019-03-03T07:19:15.201Z,925.97
2019-03-03T07:24:21.970Z,866.03
2019-03-03T07:29:26.944Z,887.77
2019-03-03T07:34:31.996Z,872.00
2019-03-03T07:39:37.259Z,879.57
2019-03-03T07:44:42.253Z,915.00
2019-03-03T07:49:47.463Z,912.83
2019-03-03T07:54:52.693Z,901.53
2019-03-03T07:59:57.878Z,878.60
2019-03-03T08:05:02.868Z,915.20
2019-03-03T08:10:08.501Z,946.47
2019-03-03T08:15:14.258Z,981.93
2019-03-03T08:20:19.316Z,1001.40
2019-03-03T08:25:24.302Z,988.97
2019-03-03T08:30:30.965Z,947.73
2019-03-03T08:35:36.145Z,980.70
2019-03-03T08:40:41.169Z,987.20
2019-03-03T08:45:57.878Z,1004.43
2019-03-03T08:51:21.810Z,977.97
2019-03-03T08:56:42.296Z,970.33
2019-03-03T09:02:09.074Z,976.07
2019-03-03T09:07:26.033Z,936.90
2019-03-03T09:12:40.689Z,962.60
2019-03-03T09:18:05.106Z,984.50
2019-03-03T09:23:32.161Z,1017.30
2019-03-03T09:28:45.004Z,1058.20
2019-03-03T09:34:15.053Z,1082.23
2019-03-03T09:39:42.050Z,1060.13
2019-03-03T09:45:04.903Z,1084.07
2019-03-03T09:50:29.542Z,1092.07
2019-03-03T09:55:44.269Z,1043.63
2019-03-03T10:01:13.517Z,990.07
2019-03-03T10:06:46.585Z,949.70
2019-03-03T10:12:16.641Z,937.13
2019-03-03T10:17:29.861Z,985.40
2019-03-03T10:22:53.910Z,907.57
2019-03-03T10:28:13.974Z,798.70
2019-03-03T10:33:32.280Z,787.43
2019-03-03T10:38:44.994Z,816.30
2019-03-03T10:44:05.951Z,779.40
2019-03-03T10:49:17.554Z,1018.43
2019-03-03T10:54:41.523Z,987.73
2019-03-03T11:00:13.488Z,1085.80
2019-03-03T11:05:50.123Z,1035.00
2019-03-03T11:11:12.057Z,990.03
2019-03-03T11:16:50.029Z,872.00
2019-03-03T11:22:26.697Z,599.53
2019-03-03T11:27:49.244Z,480.20
2019-03-03T11:33:09.341Z,707.07
2019-03-03T11:38:36.847Z,778.13
2019-03-03T11:43:55.693Z,551.40
2019-03-03T11:49:09.669Z,489.70
2019-03-03T11:54:20.038Z,512.27
2019-03-03T11:59:43.139Z,633.80
2019-03-03T12:05:06.862Z,603.73
2019-03-03T12:10:40.582Z,674.40
2019-03-03T12:16:08.709Z,783.77
2019-03-03T12:21:26.889Z,846.13
2019-03-03T12:26:56.977Z,868.67
2019-03-03T12:32:19.801Z,901.87
2019-03-03T12:37:52.601Z,942.23
2019-03-03T12:43:16.463Z,928.23
2019-03-03T12:48:33.326Z,867.70
2019-03-03T12:53:55.053Z,781.23
2019-03-03T12:59:17.639Z,606.37
2019-03-03T13:04:42.786Z,614.50
2019-03-03T13:10:05.527Z,592.27
2019-03-03T13:15:19.928Z,623.47
2019-03-03T13:20:59.262Z,630.33
2019-03-03T13:26:35.188Z,618.53
2019-03-03T13:32:02.205Z,664.97
2019-03-03T13:37:29.277Z,675.87
2019-03-03T13:42:53.215Z,860.67
2019-03-03T13:48:00.253Z,778.43
2019-03-03T13:53:05.839Z,773.13
2019-03-03T13:58:10.994Z,682.30
2019-03-03T14:03:17.131Z,696.73
2019-03-03T14:08:22.207Z,689.07
2019-03-03T14:13:27.308Z,706.90
2019-03-03T14:18:34.257Z,695.33
2019-03-03T14:23:39.258Z,671.70
2019-03-03T14:28:44.313Z,675.17
2019-03-03T14:33:49.364Z,682.63
2019-03-03T14:38:54.397Z,685.87
2019-03-03T14:43:59.552Z,690.63
2019-03-03T14:49:06.983Z,719.90
2019-03-03T14:54:13.872Z,774.03
2019-03-03T14:59:20.654Z,818.23
2019-03-03T15:04:25.734Z,756.97
2019-03-03T15:09:32.113Z,727.77
2019-03-03T15:14:37.189Z,725.00
2019-03-03T15:19:44.242Z,745.33
2019-03-03T15:24:49.415Z,707.73
2019-03-03T15:29:54.480Z,730.33
2019-03-03T15:34:59.576Z,759.13
2019-03-03T15:40:05.854Z,664.57
2019-03-03T15:45:13.471Z,660.13
2019-03-03T15:50:19.623Z,681.03
2019-03-03T15:55:24.968Z,636.77
2019-03-03T16:00:30.924Z,645.60
2019-03-03T16:05:36.308Z,588.47
2019-03-03T16:10:41.665Z,600.57
2019-03-03T16:15:47.026Z,599.23
2019-03-03T16:20:52.171Z,638.97
2019-03-03T16:25:57.254Z,579.37
2019-03-03T16:31:02.352Z,526.90
2019-03-03T16:36:07.858Z,559.07
2019-03-03T16:41:13.215Z,539.67
2019-03-03T16:46:18.300Z,634.30
2019-03-03T16:51:23.400Z,698.43
2019-03-03T16:56:29.932Z,686.23
2019-03-03T17:01:35.273Z,602.83
2019-03-03T17:06:40.408Z,559.27
2019-03-03T17:11:47.301Z,588.67
2019-03-03T17:16:52.317Z,561.07
2019-03-03T17:21:57.642Z,696.50
2019-03-03T17:27:04.429Z,731.97
2019-03-03T17:32:09.600Z,620.37
2019-03-03T17:37:14.718Z,768.43
2019-03-03T17:42:19.977Z,1192.70
2019-03-03T17:47:25.362Z,679.83
2019-03-03T17:52:31.053Z,690.47
2019-03-03T17:57:36.058Z,671.30
2019-03-03T18:02:41.444Z,623.33
2019-03-03T18:07:46.709Z,679.57
2019-03-03T18:12:51.859Z,665.13
2019-03-03T18:17:56.889Z,764.90
2019-03-03T18:23:02.225Z,606.57
2019-03-03T18:32:53.516Z,773.33
2019-03-03T18:37:58.568Z,738.70
2019-03-03T18:43:03.628Z,831.13
2019-03-03T18:48:08.978Z,856.43
2019-03-03T18:53:14.039Z,922.60
2019-03-03T18:58:19.138Z,976.50
2019-03-03T19:03:24.253Z,831.20
2019-03-03T19:08:30.440Z,714.57
2019-03-03T19:13:35.919Z,630.07
2019-03-03T19:18:41.047Z,601.33
2019-03-03T19:23:47.209Z,647.10
2019-03-03T19:28:52.250Z,606.07
2019-03-03T19:33:58.157Z,596.77
2019-03-03T19:39:04.132Z,575.43
2019-03-03T19:44:11.229Z,559.10
2019-03-03T19:49:15.841Z,628.17
2019-03-03T19:54:20.952Z,795.33
2019-03-03T19:59:26.017Z,899.20
2019-03-03T20:04:31.364Z,868.77
2019-03-03T20:09:36.557Z,800.10
2019-03-03T20:14:41.777Z,698.80
2019-03-03T20:19:47.014Z,608.10
2019-03-03T20:24:52.171Z,634.23
2019-03-03T20:29:59.632Z,724.47
2019-03-03T20:35:04.293Z,674.10
2019-03-03T20:40:12.189Z,713.10
2019-03-03T20:45:19.365Z,710.57
2019-03-03T20:50:24.834Z,713.90
2019-03-03T20:55:29.913Z,652.47
2019-03-03T21:00:35.247Z,868.47
2019-03-03T21:05:40.610Z,680.83
2019-03-03T21:10:45.661Z,784.23
2019-03-03T21:15:52.521Z,713.93
2019-03-03T21:20:59.478Z,696.40
2019-03-03T21:26:04.282Z,707.87
2019-03-03T21:31:09.333Z,709.83
2019-03-03T21:36:15.932Z,662.50
2019-03-03T21:41:21.171Z,832.40
2019-03-03T21:46:26.224Z,686.73
2019-03-03T21:51:31.289Z,733.57
2019-03-03T21:56:36.857Z,727.13
2019-03-03T22:01:42.496Z,717.13
2019-03-03T22:06:48.012Z,706.17
2019-03-03T22:11:53.054Z,678.27
2019-03-03T22:16:58.427Z,793.80
2019-03-03T22:22:03.786Z,703.97
2019-03-03T22:27:08.833Z,691.07
2019-03-03T22:32:14.204Z,680.53
2019-03-03T22:37:19.563Z,644.83
2019-03-03T22:42:24.690Z,632.07
2019-03-03T22:47:29.976Z,559.70
2019-03-03T22:52:35.001Z,507.13
2019-03-03T22:57:40.221Z,477.00
2019-03-03T23:02:45.416Z,457.50
2019-03-03T23:08:27.818Z,490.20
2019-03-03T23:14:07.722Z,453.70
2019-03-03T23:19:57.318Z,513.77
2019-03-03T23:25:35.470Z,499.50
2019-03-03T23:30:42.182Z,542.60
2019-03-03T23:35:47.541Z,503.77
2019-03-03T23:40:52.971Z,588.10
2019-03-03T23:46:01.635Z,536.40
2019-03-03T23:51:07.323Z,615.37
2019-03-03T23:56:12.423Z,608.87
